createdAt,value
2019-04-03T00:01:22.922Z,9.10
2019-04-03T00:03:28.890Z,9.10
2019-04-03T00:05:40.548Z,9.20
2019-04-03T00:07:54.899Z,9.30
2019-04-03T00:10:10.860Z,9.40
2019-04-03T00:12:16.952Z,9.40
2019-04-03T00:14:34.290Z,9.50
2019-04-03T00:16:53.631Z,9.50
2019-04-03T00:19:02.181Z,9.60
2019-04-03T00:21:21.518Z,9.60
2019-04-03T00:23:31.069Z,9.70
2019-04-03T00:25:46.220Z,9.70
2019-04-03T00:30:36.978Z,9.70
2019-04-03T00:32:49.126Z,9.80
2019-04-03T00:34:58.782Z,9.80
2019-04-03T00:37:14.646Z,9.80
2019-04-03T00:39:38.105Z,9.80
2019-04-03T00:41:44.593Z,9.80
2019-04-03T00:43:48.648Z,9.80
2019-04-03T00:46:25.144Z,9.90
2019-04-03T00:49:15.104Z,9.90
2019-04-03T00:51:44.717Z,9.90
2019-04-03T00:53:48.623Z,10.00
2019-04-03T00:55:52.618Z,10.00
2019-04-03T00:58:02.921Z,10.00
2019-04-03T01:00:12.239Z,10.10
2019-04-03T01:02:27.834Z,10.10
2019-04-03T01:04:30.937Z,10.10
2019-04-03T01:06:42.110Z,10.10
2019-04-03T01:08:53.522Z,10.10
2019-04-03T01:11:03.950Z,10.10
2019-04-03T01:13:17.615Z,10.10
2019-04-03T01:15:42.350Z,10.10
2019-04-03T01:17:53.476Z,10.10
2019-04-03T01:20:02.237Z,10.20
2019-04-03T01:22:11.722Z,10.20
2019-04-03T01:24:17.064Z,10.20
2019-04-03T01:26:24.241Z,10.20
2019-04-03T01:28:30.101Z,10.30
2019-04-03T01:30:45.942Z,10.30
2019-04-03T01:33:09.804Z,10.30
2019-04-03T01:35:14.127Z,10.30
2019-04-03T01:37:19.000Z,10.30
2019-04-03T01:39:23.273Z,10.30
2019-04-03T01:41:27.241Z,10.30
2019-04-03T01:43:31.191Z,10.30
2019-04-03T01:45:35.243Z,10.30
2019-04-03T01:47:39.046Z,10.30
2019-04-03T01:49:43.210Z,10.40
2019-04-03T01:51:47.130Z,10.40
2019-04-03T01:53:51.195Z,10.40
2019-04-03T01:55:58.376Z,10.40
2019-04-03T01:58:06.725Z,10.40
2019-04-03T02:00:30.322Z,10.40
2019-04-03T02:02:40.452Z,10.40
2019-04-03T02:04:49.265Z,10.40
2019-04-03T02:06:53.487Z,10.40
2019-04-03T02:09:11.085Z,10.40
2019-04-03T02:11:27.284Z,10.30
2019-04-03T02:13:39.145Z,10.30
2019-04-03T02:15:47.193Z,10.30
2019-04-03T02:17:54.219Z,10.30
2019-04-03T02:20:10.069Z,10.20
2019-04-03T02:22:14.119Z,10.20
2019-04-03T02:24:17.991Z,10.20
2019-04-03T02:26:22.049Z,10.20
2019-04-03T02:28:25.868Z,10.20
2019-04-03T02:30:29.671Z,10.20
2019-04-03T02:32:33.725Z,10.20
2019-04-03T02:34:37.632Z,10.20
2019-04-03T02:36:44.292Z,10.20
2019-04-03T02:38:47.172Z,10.20
2019-04-03T02:40:51.571Z,10.30
2019-04-03T02:42:55.690Z,10.30
2019-04-03T02:44:59.640Z,10.20
2019-04-03T02:47:03.488Z,10.20
2019-04-03T02:49:10.196Z,10.10
2019-04-03T02:51:13.815Z,10.10
2019-04-03T02:53:32.437Z,10.10
2019-04-03T02:55:28.163Z,10.00
2019-04-03T02:57:48.959Z,9.90
2019-04-03T03:01:51.907Z,9.90
2019-04-03T03:04:20.337Z,9.80
2019-04-03T03:06:25.451Z,9.80
2019-04-03T03:08:40.955Z,9.70
2019-04-03T03:10:38.450Z,9.70
2019-04-03T03:12:42.351Z,9.70
2019-04-03T03:14:46.339Z,9.70
2019-04-03T03:16:51.251Z,9.60
2019-04-03T03:18:59.889Z,9.60
2019-04-03T03:21:05.596Z,9.50
2019-04-03T03:23:10.181Z,9.50
2019-04-03T03:25:14.583Z,9.50
2019-04-03T03:27:19.176Z,9.50
2019-04-03T03:29:26.361Z,9.50
2019-04-03T03:32:01.559Z,9.50
2019-04-03T03:33:59.679Z,9.50
2019-04-03T03:36:10.477Z,9.50
2019-04-03T03:38:28.294Z,9.40
2019-04-03T03:43:19.428Z,9.40
2019-04-03T03:45:41.113Z,9.30
2019-04-03T03:48:10.643Z,9.30
2019-04-03T03:50:07.182Z,9.30
2019-04-03T03:52:13.692Z,9.30
2019-04-03T03:54:25.355Z,9.30
2019-04-03T03:56:31.344Z,9.20
2019-04-03T03:58:45.653Z,9.20
2019-04-03T04:01:32.668Z,9.20
2019-04-03T04:03:32.822Z,9.10
2019-04-03T04:05:29.533Z,9.10
2019-04-03T04:07:48.876Z,9.10
2019-04-03T04:09:53.590Z,9.10
2019-04-03T04:11:58.248Z,9.00
2019-04-03T04:14:23.349Z,9.00
2019-04-03T04:16:17.480Z,9.00
2019-04-03T04:18:23.997Z,9.00
2019-04-03T04:20:28.946Z,9.00
2019-04-03T04:22:33.854Z,9.00
2019-04-03T04:24:39.550Z,9.10
2019-04-03T04:26:45.377Z,9.10
2019-04-03T04:28:54.225Z,9.10
2019-04-03T04:30:55.505Z,9.10
2019-04-03T04:32:59.857Z,9.00
2019-04-03T04:35:04.019Z,9.00
2019-04-03T04:37:08.017Z,9.00
2019-04-03T04:39:11.871Z,9.00
2019-04-03T04:41:15.963Z,9.00
2019-04-03T04:43:19.910Z,9.00
2019-04-03T04:45:23.699Z,9.00
2019-04-03T04:47:27.609Z,8.90
2019-04-03T04:49:31.764Z,8.90
2019-04-03T04:51:40.793Z,8.90
2019-04-03T04:53:53.352Z,8.90
2019-04-03T04:55:55.739Z,8.90
2019-04-03T04:58:07.830Z,8.90
2019-04-03T05:00:16.315Z,8.90
2019-04-03T05:02:27.278Z,8.90
2019-04-03T05:04:45.580Z,8.90
2019-04-03T05:06:55.313Z,8.90
2019-04-03T05:09:07.335Z,8.90
2019-04-03T05:12:09.528Z,8.90
2019-04-03T05:14:32.416Z,8.90
2019-04-03T05:16:39.967Z,8.90
2019-04-03T05:19:09.442Z,8.90
2019-04-03T05:21:11.855Z,8.90
2019-04-03T05:23:18.722Z,8.90
2019-04-03T05:25:22.854Z,8.90
2019-04-03T05:27:27.014Z,8.90
2019-04-03T05:29:30.983Z,9.00
2019-04-03T05:49:59.459Z,9.10
2019-04-03T05:52:43.764Z,9.10
2019-04-03T05:55:45.056Z,9.10
2019-04-03T05:58:53.506Z,9.10
2019-04-03T06:04:53.641Z,9.20
2019-04-03T06:07:35.376Z,9.20
2019-04-03T06:09:45.690Z,9.20
2019-04-03T06:11:45.320Z,9.20
2019-04-03T06:13:49.550Z,9.20
2019-04-03T06:16:17.667Z,9.20
2019-04-03T06:18:39.745Z,9.30
2019-04-03T06:21:27.012Z,9.30
2019-04-03T06:24:38.304Z,9.30
2019-04-03T06:27:03.951Z,9.30
2019-04-03T06:30:05.041Z,9.30
2019-04-03T06:32:55.554Z,9.30
2019-04-03T06:35:40.206Z,9.30
2019-04-03T06:38:38.364Z,9.30
2019-04-03T06:41:12.521Z,9.30
2019-04-03T06:43:56.215Z,9.30
2019-04-03T06:46:29.096Z,9.30
2019-04-03T06:49:15.155Z,9.30
2019-04-03T06:51:49.198Z,9.40
2019-04-03T06:54:22.465Z,9.40
2019-04-03T06:56:54.373Z,9.30
2019-04-03T06:59:28.875Z,9.30
2019-04-03T07:05:57.040Z,9.40
2019-04-03T07:09:21.738Z,9.40
2019-04-03T07:12:15.706Z,9.50
2019-04-03T07:14:53.181Z,9.40
2019-04-03T07:19:49.989Z,9.50
2019-04-03T07:21:54.439Z,9.50
2019-04-03T07:22:02.647Z,9.50
2019-04-03T07:24:46.671Z,9.60
2019-04-03T07:27:41.874Z,9.70
2019-04-03T07:36:03.695Z,9.80
2019-04-03T07:39:15.206Z,9.80
2019-04-03T07:43:00.881Z,9.80
2019-04-03T07:45:34.298Z,9.80
2019-04-03T07:48:59.286Z,9.70
2019-04-03T07:54:21.316Z,9.70
2019-04-03T08:02:34.232Z,9.80
2019-04-03T08:05:33.548Z,9.80
2019-04-03T08:08:02.241Z,9.80
2019-04-03T08:10:38.310Z,9.90
2019-04-03T08:13:30.010Z,10.00
2019-04-03T08:16:28.371Z,10.10
2019-04-03T08:23:19.997Z,10.20
2019-04-03T08:24:36.203Z,10.20
2019-04-03T08:30:16.879Z,10.30
2019-04-03T08:32:20.691Z,10.30
2019-04-03T08:34:24.517Z,10.20
2019-04-03T08:36:28.493Z,10.10
2019-04-03T08:38:32.370Z,10.10
2019-04-03T08:40:36.706Z,10.10
2019-04-03T08:42:40.795Z,10.00
2019-04-03T08:44:47.398Z,10.00
2019-04-03T08:46:51.369Z,10.10
2019-04-03T08:48:55.837Z,10.10
2019-04-03T08:51:02.279Z,10.10
2019-04-03T08:53:07.791Z,10.20
2019-04-03T08:55:15.407Z,10.20
2019-04-03T08:57:20.517Z,10.10
2019-04-03T08:59:24.920Z,10.10
2019-04-03T09:01:28.863Z,10.10
2019-04-03T09:03:32.694Z,10.10
2019-04-03T09:05:36.582Z,10.00
2019-04-03T09:07:40.488Z,9.90
2019-04-03T09:09:44.338Z,9.90
2019-04-03T09:11:48.311Z,10.00
2019-04-03T09:13:52.737Z,10.00
2019-04-03T09:15:59.722Z,10.10
2019-04-03T09:18:05.352Z,10.10
2019-04-03T09:20:12.543Z,10.20
2019-04-03T09:22:17.130Z,10.20
2019-04-03T09:24:20.789Z,10.10
2019-04-03T09:26:25.029Z,10.10
2019-04-03T09:29:12.421Z,10.10
2019-04-03T09:32:29.675Z,10.20
2019-04-03T09:35:28.725Z,10.20
2019-04-03T09:38:37.501Z,10.30
2019-04-03T09:41:19.552Z,10.40
2019-04-03T09:43:23.673Z,10.50
2019-04-03T09:46:00.850Z,10.60
2019-04-03T09:48:19.105Z,10.60
2019-04-03T09:50:49.986Z,10.60
2019-04-03T09:53:31.777Z,10.70
2019-04-03T09:55:53.746Z,10.80
2019-04-03T10:03:24.846Z,10.90
2019-04-03T10:05:30.569Z,11.10
2019-04-03T10:07:51.982Z,11.10
2019-04-03T10:10:14.028Z,11.10
2019-04-03T10:12:36.207Z,11.20
2019-04-03T10:15:41.596Z,11.20
2019-04-03T10:18:21.833Z,11.30
2019-04-03T10:23:51.040Z,11.80
2019-04-03T10:32:28.054Z,12.10
2019-04-03T10:36:02.410Z,12.30
2019-04-03T10:48:58.065Z,12.20
2019-04-03T10:54:54.125Z,12.50
2019-04-03T11:07:42.592Z,13.70
2019-04-03T11:27:19.664Z,14.40
2019-04-03T11:41:35.639Z,14.90
2019-04-03T11:44:23.248Z,14.90
2019-04-03T11:58:10.710Z,14.70
2019-04-03T12:00:23.345Z,14.30
2019-04-03T12:03:06.759Z,14.20
2019-04-03T12:06:04.133Z,14.40
2019-04-03T12:18:23.613Z,15.20
2019-04-03T12:24:31.640Z,15.30
2019-04-03T12:31:01.455Z,14.50
2019-04-03T12:33:53.180Z,14.30
2019-04-03T12:36:37.161Z,14.30
2019-04-03T12:38:44.499Z,14.50
2019-04-03T12:40:48.447Z,14.90
2019-04-03T12:44:21.505Z,15.10
2019-04-03T12:47:34.099Z,15.30
2019-04-03T12:53:31.264Z,15.70
2019-04-03T13:10:07.846Z,14.30
2019-04-03T13:20:04.297Z,13.60
2019-04-03T13:26:58.072Z,13.30
2019-04-03T13:30:32.641Z,13.30
2019-04-03T13:33:42.099Z,13.20
2019-04-03T13:36:56.294Z,13.20
2019-04-03T13:46:39.856Z,14.40
2019-04-03T13:50:14.801Z,14.70
2019-04-03T13:53:18.383Z,15.10
2019-04-03T14:03:06.359Z,15.60
2019-04-03T14:22:46.761Z,15.10
2019-04-03T14:26:03.135Z,15.00
2019-04-03T14:36:20.901Z,14.70
2019-04-03T14:39:39.495Z,14.40
2019-04-03T14:52:08.871Z,14.10
2019-04-03T14:52:39.788Z,13.20
2019-04-03T14:55:54.205Z,13.00
2019-04-03T14:59:09.037Z,12.90
2019-04-03T15:08:10.923Z,12.70
2019-04-03T15:21:09.421Z,12.70
2019-04-03T15:27:55.417Z,12.90
2019-04-03T15:35:04.185Z,12.70
2019-04-03T15:38:13.347Z,12.60
2019-04-03T15:41:19.398Z,12.50
2019-04-03T15:44:19.976Z,12.70
2019-04-03T15:47:18.137Z,12.70
2019-04-03T15:50:31.951Z,12.60
2019-04-03T16:03:27.413Z,12.80
2019-04-03T16:06:35.907Z,12.80
2019-04-03T16:09:05.436Z,12.70
2019-04-03T16:15:15.298Z,12.60
2019-04-03T16:21:11.064Z,12.40
2019-04-03T16:27:13.961Z,12.10
2019-04-03T16:29:09.721Z,12.10
2019-04-03T16:38:35.782Z,12.00
2019-04-03T16:41:59.412Z,12.00
2019-04-03T16:47:31.553Z,11.90
2019-04-03T16:59:11.966Z,11.70
2019-04-03T17:11:27.502Z,11.30
2019-04-03T17:13:44.080Z,11.20
2019-04-03T17:15:48.240Z,11.20
2019-04-03T17:25:10.562Z,11.00
2019-04-03T17:27:35.124Z,11.00
2019-04-03T17:29:50.531Z,11.00
2019-04-03T17:32:03.382Z,10.90
2019-04-03T17:34:31.897Z,10.90
2019-04-03T17:39:52.068Z,10.90
2019-04-03T18:08:17.575Z,10.50
2019-04-03T18:11:13.072Z,10.50
2019-04-03T18:19:37.792Z,10.40
2019-04-03T18:22:06.020Z,10.30
2019-04-03T18:24:36.988Z,10.30
2019-04-03T18:27:15.007Z,10.30
2019-04-03T18:32:24.314Z,10.30
2019-04-03T18:35:07.146Z,10.20
2019-04-03T18:37:17.816Z,10.30
2019-04-03T18:40:02.963Z,10.20
2019-04-03T18:42:40.612Z,10.20
2019-04-03T18:47:57.137Z,10.20
2019-04-03T18:50:02.913Z,10.20
2019-04-03T18:54:42.243Z,10.20
2019-04-03T18:57:19.532Z,10.20
2019-04-03T19:00:25.214Z,10.20
2019-04-03T19:05:34.909Z,10.20
2019-04-03T19:07:56.491Z,10.10
2019-04-03T19:10:07.814Z,10.10
2019-04-03T19:12:13.400Z,10.10
2019-04-03T19:14:26.563Z,10.10
2019-04-03T19:17:24.820Z,10.00
2019-04-03T19:19:29.455Z,9.90
2019-04-03T19:21:33.457Z,9.90
2019-04-03T19:24:27.062Z,9.90
2019-04-03T19:26:31.801Z,9.90
2019-04-03T19:29:04.742Z,9.90
2019-04-03T19:31:13.122Z,9.90
2019-04-03T19:33:57.916Z,10.00
2019-04-03T19:36:24.716Z,9.90
2019-04-03T19:38:41.746Z,9.90
2019-04-03T19:40:58.308Z,9.90
2019-04-03T19:43:54.600Z,9.90
2019-04-03T19:45:51.688Z,9.90
2019-04-03T19:48:16.797Z,9.90
2019-04-03T19:50:20.904Z,9.90
2019-04-03T19:52:36.988Z,9.90
2019-04-03T19:55:54.407Z,9.90
2019-04-03T19:58:09.817Z,9.80
2019-04-03T20:00:14.932Z,9.70
2019-04-03T20:02:59.214Z,9.70
2019-04-03T20:05:19.027Z,9.70
2019-04-03T20:07:31.865Z,9.70
2019-04-03T20:09:35.997Z,9.70
2019-04-03T20:14:11.305Z,9.60
2019-04-03T20:16:24.379Z,9.50
2019-04-03T20:18:26.040Z,9.40
2019-04-03T20:20:38.710Z,9.40
2019-04-03T20:22:43.552Z,9.30
2019-04-03T20:24:59.232Z,9.30
2019-04-03T20:27:06.767Z,9.30
2019-04-03T20:29:11.074Z,9.20
2019-04-03T20:31:45.819Z,9.20
2019-04-03T20:33:53.516Z,9.20
2019-04-03T20:35:57.544Z,9.10
2019-04-03T20:38:01.464Z,9.10
2019-04-03T20:40:17.318Z,9.10
2019-04-03T20:42:21.316Z,9.00
2019-04-03T20:44:33.770Z,9.00
2019-04-03T20:46:37.767Z,9.00
2019-04-03T20:49:15.741Z,8.90
2019-04-03T20:51:44.159Z,8.90
2019-04-03T20:54:00.277Z,8.90
2019-04-03T20:56:04.428Z,8.90
2019-04-03T20:58:18.951Z,8.90
2019-04-03T21:00:23.167Z,8.90
2019-04-03T21:02:34.007Z,8.90
2019-04-03T21:04:42.302Z,8.90
2019-04-03T21:06:51.516Z,8.90
2019-04-03T21:08:55.263Z,8.80
2019-04-03T21:11:02.163Z,8.80
2019-04-03T21:13:06.901Z,8.80
2019-04-03T21:15:14.239Z,8.80
2019-04-03T21:17:18.886Z,8.80
2019-04-03T21:19:23.377Z,8.80
2019-04-03T21:21:27.275Z,8.80
2019-04-03T21:23:34.723Z,8.70
2019-04-03T21:25:54.545Z,8.70
2019-04-03T21:28:12.379Z,8.70
2019-04-03T21:30:33.022Z,8.60
2019-04-03T21:32:55.387Z,8.60
2019-04-03T21:35:06.433Z,8.60
2019-04-03T21:37:22.602Z,8.60
2019-04-03T21:39:48.860Z,8.50
2019-04-03T21:42:19.702Z,8.50
2019-04-03T21:44:32.581Z,8.50
2019-04-03T21:46:46.284Z,8.50
2019-04-03T21:49:18.419Z,8.50
2019-04-03T21:52:22.650Z,8.40
2019-04-03T21:54:35.738Z,8.40
2019-04-03T21:56:40.191Z,8.40
2019-04-03T21:58:57.055Z,8.40
2019-04-03T22:01:16.322Z,8.40
2019-04-03T22:03:37.358Z,8.40
2019-04-03T22:05:40.546Z,8.30
2019-04-03T22:07:59.920Z,8.30
2019-04-03T22:13:07.701Z,8.30
2019-04-03T22:15:31.391Z,8.30
2019-04-03T22:17:52.658Z,8.30
2019-04-03T22:20:27.709Z,8.30
2019-04-03T22:22:42.959Z,8.30
2019-04-03T22:25:09.859Z,8.20
2019-04-03T22:27:17.544Z,8.20
2019-04-03T22:29:41.649Z,8.20
2019-04-03T22:34:41.994Z,8.10
2019-04-03T22:37:26.670Z,8.10
2019-04-03T22:40:20.955Z,8.10
2019-04-03T22:45:50.459Z,8.10
2019-04-03T22:48:46.795Z,8.10
2019-04-03T22:51:06.832Z,8.10
2019-04-03T22:53:38.000Z,8.10
2019-04-03T22:55:50.235Z,8.00
2019-04-03T22:57:58.831Z,8.00
2019-04-03T23:00:06.656Z,8.10
2019-04-03T23:02:20.069Z,8.00
2019-04-03T23:04:42.475Z,8.10
2019-04-03T23:09:24.755Z,8.00
2019-04-03T23:12:33.166Z,8.00
2019-04-03T23:14:48.168Z,8.00
2019-04-03T23:17:24.096Z,8.00
2019-04-03T23:19:52.708Z,8.00
2019-04-03T23:24:48.352Z,8.00
2019-04-03T23:27:44.908Z,8.00
2019-04-03T23:30:37.332Z,8.00
2019-04-03T23:33:24.196Z,8.10
2019-04-03T23:35:49.100Z,8.10
2019-04-03T23:38:10.566Z,8.10
2019-04-03T23:40:34.552Z,8.10
2019-04-03T23:43:40.096Z,8.10
2019-04-03T23:45:48.310Z,8.00
2019-04-03T23:49:52.226Z,8.00
2019-04-03T23:51:03.885Z,7.90
2019-04-03T23:53:32.757Z,7.90
2019-04-03T23:55:36.846Z,7.90
2019-04-03T23:58:14.419Z,7.90
